VIV4290 MMMY-MMMD
Flight info
| Callsign | VIV4290 |
|---|---|
| Flight time | N/A |
| Altitude | 37000 |
| Route | XOTAT1 MTY UT11 VESKO UT22 XUBSU XUBSU1B |
| Aircraft | A320/M-SDE3FGHIRWY/LB1 |
Departure
| Time | 2026-05-08 17:48 |
|---|---|
| Airport | Monterrey International Airport (MMMY) |
Arrival
| Time | N/A |
|---|---|
| Airport | Manuel Crescencio Rejón International Airport (MMMD) |
| Time | Latitude | Longitude | Altitude | Speed | Heading |
|---|---|---|---|---|---|
| 2026-05-08 17:13 | 25.78078 | -100.11890 | 1292 ft | 0 kts | 211° |
| 2026-05-08 17:40 | 25.78080 | -100.11889 | 1292 ft | 1 kts | 211° |
| 2026-05-08 17:40 | 25.78095 | -100.11879 | 1292 ft | 3 kts | 211° |
| 2026-05-08 17:40 | 25.78112 | -100.11867 | 1292 ft | 3 kts | 212° |
| 2026-05-08 17:40 | 25.78125 | -100.11855 | 1292 ft | 3 kts | 264° |
| 2026-05-08 17:41 | 25.78122 | -100.11841 | 1292 ft | 1 kts | 302° |
| 2026-05-08 17:41 | 25.78115 | -100.11827 | 1292 ft | 3 kts | 302° |
| 2026-05-08 17:41 | 25.78106 | -100.11812 | 1292 ft | 1 kts | 302° |
| 2026-05-08 17:41 | 25.78106 | -100.11811 | 1292 ft | 0 kts | 302° |
| 2026-05-08 17:44 | 25.78106 | -100.11812 | 1292 ft | 0 kts | 302° |
| 2026-05-08 17:44 | 25.78113 | -100.11825 | 1292 ft | 6 kts | 302° |
| 2026-05-08 17:45 | 25.78151 | -100.11873 | 1292 ft | 9 kts | 345° |
| 2026-05-08 17:45 | 25.78213 | -100.11846 | 1292 ft | 11 kts | 30° |
| 2026-05-08 17:45 | 25.78282 | -100.11802 | 1292 ft | 5 kts | 31° |
| 2026-05-08 17:45 | 25.78317 | -100.11778 | 1292 ft | 7 kts | 31° |
| 2026-05-08 17:46 | 25.78364 | -100.11747 | 1292 ft | 6 kts | 31° |
| 2026-05-08 17:46 | 25.78402 | -100.11722 | 1292 ft | 7 kts | 31° |
| 2026-05-08 17:46 | 25.78405 | -100.11696 | 1292 ft | 0 kts | 124° |
| 2026-05-08 17:46 | 25.78404 | -100.11694 | 1292 ft | 0 kts | 125° |
| 2026-05-08 17:47 | 25.78400 | -100.11688 | 1292 ft | 5 kts | 127° |
| 2026-05-08 17:47 | 25.78302 | -100.11511 | 1292 ft | 61 kts | 121° |
| 2026-05-08 17:47 | 25.77954 | -100.10882 | 1293 ft | 128 kts | 122° |
| 2026-05-08 17:47 | 25.77614 | -100.10250 | 1297 ft | 163 kts | 120° |
| 2026-05-08 17:48 | 25.76788 | -100.08786 | 1950 ft | 173 kts | 123° |
| 2026-05-08 17:48 | 25.76108 | -100.07638 | 2508 ft | 185 kts | 123° |
| 2026-05-08 17:48 | 25.75419 | -100.06364 | 2972 ft | 200 kts | 114° |
| 2026-05-08 17:48 | 25.74986 | -100.04819 | 3341 ft | 220 kts | 103° |
| 2026-05-08 17:49 | 25.74637 | -100.03107 | 3855 ft | 235 kts | 103° |
| 2026-05-08 17:49 | 25.74223 | -100.01287 | 4413 ft | 250 kts | 105° |
| 2026-05-08 17:49 | 25.73734 | -99.99382 | 4986 ft | 264 kts | 105° |
| 2026-05-08 17:49 | 25.73229 | -99.97378 | 5662 ft | 273 kts | 104° |
| 2026-05-08 17:50 | 25.72710 | -99.95307 | 6300 ft | 284 kts | 105° |
| 2026-05-08 17:50 | 25.72165 | -99.93166 | 7003 ft | 291 kts | 107° |
| 2026-05-08 17:50 | 25.71623 | -99.90994 | 7757 ft | 295 kts | 106° |
| 2026-05-08 17:50 | 25.71082 | -99.88782 | 8515 ft | 299 kts | 106° |
| 2026-05-08 17:51 | 25.70537 | -99.86574 | 9246 ft | 302 kts | 106° |
| 2026-05-08 17:51 | 25.69971 | -99.84313 | 9971 ft | 306 kts | 107° |
| 2026-05-08 17:51 | 25.69393 | -99.82021 | 10575 ft | 314 kts | 107° |
| 2026-05-08 17:51 | 25.68791 | -99.79623 | 10900 ft | 332 kts | 106° |
| 2026-05-08 17:52 | 25.68159 | -99.77086 | 11136 ft | 351 kts | 106° |
| 2026-05-08 17:52 | 25.67495 | -99.74418 | 11361 ft | 369 kts | 106° |
| 2026-05-08 17:52 | 25.65972 | -99.68743 | 11882 ft | 397 kts | 108° |
| 2026-05-08 17:53 | 25.65128 | -99.65773 | 12107 ft | 410 kts | 108° |
| 2026-05-08 17:53 | 25.64267 | -99.62708 | 12420 ft | 419 kts | 108° |
| 2026-05-08 17:53 | 25.63415 | -99.59606 | 12910 ft | 423 kts | 108° |
| 2026-05-08 17:53 | 25.62562 | -99.56466 | 13403 ft | 426 kts | 107° |
| 2026-05-08 17:54 | 25.61705 | -99.53317 | 13880 ft | 429 kts | 108° |
| 2026-05-08 17:54 | 25.60835 | -99.50142 | 14348 ft | 432 kts | 108° |
| 2026-05-08 17:54 | 25.59954 | -99.46953 | 14804 ft | 435 kts | 108° |
| 2026-05-08 17:54 | 25.59074 | -99.43777 | 15246 ft | 437 kts | 108° |
| 2026-05-08 17:55 | 25.58179 | -99.40551 | 15681 ft | 440 kts | 108° |
| 2026-05-08 17:55 | 25.57279 | -99.37295 | 16106 ft | 443 kts | 108° |
| 2026-05-08 17:55 | 25.56377 | -99.34018 | 16524 ft | 446 kts | 108° |
| 2026-05-08 17:55 | 25.55468 | -99.30718 | 16931 ft | 448 kts | 108° |
| 2026-05-08 17:56 | 25.54551 | -99.27407 | 17330 ft | 451 kts | 108° |
| 2026-05-08 17:56 | 25.53627 | -99.24079 | 17721 ft | 454 kts | 108° |
| 2026-05-08 17:56 | 25.52699 | -99.20738 | 18105 ft | 456 kts | 108° |
| 2026-05-08 17:56 | 25.51761 | -99.17362 | 18479 ft | 459 kts | 108° |
| 2026-05-08 17:57 | 25.50820 | -99.13978 | 18848 ft | 461 kts | 108° |
| 2026-05-08 17:57 | 25.49885 | -99.10613 | 19210 ft | 464 kts | 108° |
| 2026-05-08 17:57 | 25.48930 | -99.07188 | 19570 ft | 466 kts | 108° |
| 2026-05-08 17:57 | 25.47972 | -99.03753 | 19919 ft | 468 kts | 108° |
| 2026-05-08 17:58 | 25.47006 | -99.00293 | 20267 ft | 471 kts | 108° |
| 2026-05-08 17:58 | 25.46037 | -98.96829 | 20609 ft | 473 kts | 108° |
| 2026-05-08 17:58 | 25.45061 | -98.93342 | 20936 ft | 475 kts | 108° |
| 2026-05-08 17:58 | 25.44079 | -98.89834 | 21260 ft | 477 kts | 108° |
| 2026-05-08 17:59 | 25.43096 | -98.86324 | 21575 ft | 479 kts | 108° |
| 2026-05-08 17:59 | 25.42102 | -98.82791 | 21879 ft | 482 kts | 108° |
| 2026-05-08 17:59 | 25.41104 | -98.79244 | 22190 ft | 484 kts | 108° |
| 2026-05-08 17:59 | 25.40102 | -98.75678 | 22495 ft | 486 kts | 108° |
| 2026-05-08 18:00 | 25.39097 | -98.72107 | 22792 ft | 488 kts | 108° |
| 2026-05-08 18:00 | 25.37072 | -98.64912 | 23361 ft | 492 kts | 108° |
| 2026-05-08 18:00 | 25.36051 | -98.61305 | 23633 ft | 493 kts | 108° |
| 2026-05-08 18:01 | 25.35033 | -98.57715 | 23895 ft | 495 kts | 108° |
| 2026-05-08 18:01 | 25.34003 | -98.54073 | 24152 ft | 497 kts | 108° |
| 2026-05-08 18:01 | 25.32971 | -98.50416 | 24401 ft | 499 kts | 108° |
| 2026-05-08 18:01 | 25.31934 | -98.46750 | 24636 ft | 501 kts | 108° |
| 2026-05-08 18:02 | 25.30888 | -98.43068 | 24864 ft | 502 kts | 108° |
| 2026-05-08 18:02 | 25.30196 | -98.40636 | 25009 ft | 503 kts | 108° |
| 2026-05-08 18:02 | 25.28785 | -98.35684 | 25332 ft | 504 kts | 108° |
| 2026-05-08 18:02 | 25.27735 | -98.31995 | 25632 ft | 503 kts | 108° |
| 2026-05-08 18:03 | 25.26680 | -98.28306 | 25918 ft | 503 kts | 108° |
| 2026-05-08 18:03 | 25.25625 | -98.24620 | 26211 ft | 502 kts | 108° |
| 2026-05-08 18:03 | 25.24572 | -98.20939 | 26494 ft | 502 kts | 108° |
| 2026-05-08 18:03 | 25.23518 | -98.17253 | 26784 ft | 501 kts | 108° |
| 2026-05-08 18:04 | 25.22482 | -98.13638 | 27075 ft | 501 kts | 108° |
| 2026-05-08 18:04 | 25.21429 | -98.09974 | 27368 ft | 500 kts | 108° |
| 2026-05-08 18:04 | 25.20380 | -98.06314 | 27670 ft | 499 kts | 108° |
| 2026-05-08 18:04 | 25.19331 | -98.02658 | 27968 ft | 499 kts | 108° |
| 2026-05-08 18:05 | 25.18281 | -97.98998 | 28273 ft | 498 kts | 108° |
| 2026-05-08 18:05 | 25.17233 | -97.95355 | 28567 ft | 498 kts | 108° |
| 2026-05-08 18:05 | 25.16185 | -97.91724 | 28859 ft | 497 kts | 108° |
| 2026-05-08 18:05 | 25.15131 | -97.88078 | 29164 ft | 496 kts | 108° |
| 2026-05-08 18:06 | 25.14084 | -97.84461 | 29468 ft | 496 kts | 108° |
| 2026-05-08 18:06 | 25.13037 | -97.80831 | 29763 ft | 495 kts | 108° |
| 2026-05-08 18:06 | 25.11992 | -97.77212 | 30059 ft | 495 kts | 108° |
| 2026-05-08 18:06 | 25.11297 | -97.74810 | 30256 ft | 494 kts | 108° |
| 2026-05-08 18:07 | 25.09912 | -97.70030 | 30648 ft | 493 kts | 108° |
| 2026-05-08 18:07 | 25.09206 | -97.67596 | 30844 ft | 493 kts | 108° |
| 2026-05-08 18:07 | 25.07823 | -97.62834 | 31212 ft | 492 kts | 108° |
| 2026-05-08 18:07 | 25.06777 | -97.59240 | 31482 ft | 492 kts | 109° |
| 2026-05-08 18:08 | 25.06072 | -97.56820 | 31667 ft | 491 kts | 109° |
| 2026-05-08 18:08 | 25.04691 | -97.52076 | 32038 ft | 491 kts | 108° |
| 2026-05-08 18:08 | 25.03987 | -97.49652 | 32232 ft | 490 kts | 108° |
| 2026-05-08 18:08 | 25.02950 | -97.46075 | 32512 ft | 490 kts | 108° |
| 2026-05-08 18:09 | 25.01911 | -97.42495 | 32787 ft | 489 kts | 108° |
| 2026-05-08 18:09 | 25.00872 | -97.38934 | 33060 ft | 488 kts | 109° |
| 2026-05-08 18:09 | 24.99826 | -97.35371 | 33331 ft | 488 kts | 109° |
| 2026-05-08 18:09 | 24.98778 | -97.31812 | 33592 ft | 487 kts | 109° |
| 2026-05-08 18:10 | 24.97746 | -97.28301 | 33840 ft | 487 kts | 109° |
| 2026-05-08 18:10 | 24.96706 | -97.24748 | 34011 ft | 487 kts | 109° |
| 2026-05-08 18:10 | 24.94629 | -97.17664 | 34007 ft | 486 kts | 109° |
| 2026-05-08 18:11 | 24.92540 | -97.10580 | 34007 ft | 486 kts | 109° |
| 2026-05-08 18:11 | 24.90449 | -97.03494 | 34007 ft | 486 kts | 109° |
| 2026-05-08 18:12 | 24.88358 | -96.96417 | 34007 ft | 486 kts | 109° |
| 2026-05-08 18:12 | 24.86258 | -96.89329 | 34007 ft | 486 kts | 109° |
| 2026-05-08 18:13 | 24.84160 | -96.82261 | 34007 ft | 486 kts | 109° |
| 2026-05-08 18:13 | 24.82068 | -96.75230 | 34007 ft | 486 kts | 109° |
| 2026-05-08 18:14 | 24.79947 | -96.68117 | 34007 ft | 486 kts | 109° |
| 2026-05-08 18:14 | 24.77853 | -96.61101 | 34007 ft | 486 kts | 109° |
| 2026-05-08 18:15 | 24.75737 | -96.54024 | 34007 ft | 487 kts | 109° |
| 2026-05-08 18:15 | 24.73622 | -96.46952 | 34007 ft | 487 kts | 109° |
| 2026-05-08 18:16 | 24.71495 | -96.39877 | 34007 ft | 487 kts | 109° |
| 2026-05-08 18:16 | 24.69368 | -96.32808 | 34007 ft | 487 kts | 109° |
| 2026-05-08 18:17 | 24.67240 | -96.25743 | 34007 ft | 487 kts | 109° |
| 2026-05-08 18:17 | 24.65122 | -96.18724 | 34007 ft | 487 kts | 109° |
| 2026-05-08 18:18 | 24.62991 | -96.11662 | 34007 ft | 487 kts | 109° |
| 2026-05-08 18:18 | 24.60846 | -96.04595 | 34007 ft | 487 kts | 109° |
| 2026-05-08 18:19 | 24.58703 | -95.97545 | 34007 ft | 487 kts | 109° |
| 2026-05-08 18:19 | 24.56559 | -95.90491 | 34007 ft | 487 kts | 109° |
| 2026-05-08 18:20 | 24.54411 | -95.83436 | 34007 ft | 487 kts | 109° |
| 2026-05-08 18:20 | 24.52269 | -95.76426 | 34007 ft | 487 kts | 109° |
| 2026-05-08 18:21 | 24.50116 | -95.69382 | 34007 ft | 487 kts | 109° |
| 2026-05-08 18:21 | 24.47962 | -95.62336 | 34007 ft | 487 kts | 109° |
| 2026-05-08 18:22 | 24.45794 | -95.55285 | 34007 ft | 487 kts | 109° |
| 2026-05-08 18:22 | 24.43642 | -95.48278 | 34007 ft | 487 kts | 109° |
| 2026-05-08 18:23 | 24.41476 | -95.41242 | 34007 ft | 487 kts | 109° |
| 2026-05-08 18:23 | 24.39303 | -95.34215 | 34007 ft | 487 kts | 109° |
| 2026-05-08 18:24 | 24.37131 | -95.27181 | 34007 ft | 487 kts | 109° |
| 2026-05-08 18:24 | 24.34960 | -95.20147 | 34007 ft | 487 kts | 109° |
| 2026-05-08 18:25 | 24.32770 | -95.13122 | 34007 ft | 487 kts | 110° |
| 2026-05-08 18:25 | 24.30583 | -95.06105 | 34007 ft | 487 kts | 110° |
| 2026-05-08 18:26 | 24.28395 | -94.99083 | 34007 ft | 487 kts | 110° |
| 2026-05-08 18:26 | 24.26217 | -94.92111 | 34007 ft | 487 kts | 110° |
| 2026-05-08 18:27 | 24.24388 | -94.86276 | 34007 ft | 487 kts | 110° |
| 2026-05-08 18:27 | 24.21817 | -94.78078 | 34007 ft | 487 kts | 110° |
| 2026-05-08 18:28 | 24.19610 | -94.71056 | 34007 ft | 487 kts | 110° |
| 2026-05-08 18:28 | 24.17405 | -94.64057 | 34007 ft | 487 kts | 110° |
| 2026-05-08 18:29 | 24.15107 | -94.57085 | 33998 ft | 486 kts | 116° |
| 2026-05-08 18:29 | 24.11760 | -94.50742 | 34010 ft | 484 kts | 124° |
| 2026-05-08 18:30 | 24.08118 | -94.44538 | 34008 ft | 484 kts | 124° |
| 2026-05-08 18:30 | 24.04556 | -94.38280 | 34007 ft | 484 kts | 123° |
| 2026-05-08 18:31 | 24.01040 | -94.31988 | 34007 ft | 484 kts | 123° |
| 2026-05-08 18:31 | 23.97480 | -94.25740 | 34007 ft | 484 kts | 123° |
| 2026-05-08 18:32 | 23.93907 | -94.19498 | 34007 ft | 484 kts | 123° |
| 2026-05-08 18:32 | 23.90376 | -94.13284 | 34007 ft | 484 kts | 123° |
| 2026-05-08 18:33 | 23.86817 | -94.07038 | 34007 ft | 484 kts | 123° |
| 2026-05-08 18:33 | 23.83249 | -94.00801 | 34007 ft | 484 kts | 123° |
| 2026-05-08 18:34 | 23.79683 | -93.94565 | 34007 ft | 484 kts | 123° |
| 2026-05-08 18:34 | 23.76119 | -93.88325 | 34007 ft | 484 kts | 123° |
| 2026-05-08 18:35 | 23.72556 | -93.82118 | 34007 ft | 484 kts | 123° |
| 2026-05-08 18:35 | 23.68983 | -93.75893 | 34007 ft | 484 kts | 123° |
| 2026-05-08 18:36 | 23.65409 | -93.69668 | 34007 ft | 484 kts | 123° |
| 2026-05-08 18:36 | 23.61832 | -93.63454 | 34007 ft | 484 kts | 123° |
| 2026-05-08 18:37 | 23.58246 | -93.57231 | 34007 ft | 484 kts | 123° |
| 2026-05-08 18:37 | 23.54661 | -93.51013 | 34007 ft | 484 kts | 124° |
| 2026-05-08 18:38 | 23.51074 | -93.44803 | 34007 ft | 484 kts | 123° |
| 2026-05-08 18:38 | 23.47485 | -93.38588 | 34007 ft | 484 kts | 124° |
| 2026-05-08 18:39 | 23.43894 | -93.32391 | 34007 ft | 484 kts | 124° |
| 2026-05-08 18:39 | 23.40319 | -93.26225 | 34007 ft | 484 kts | 123° |
| 2026-05-08 18:40 | 23.36730 | -93.20028 | 34007 ft | 484 kts | 124° |
| 2026-05-08 18:40 | 23.33134 | -93.13837 | 34007 ft | 484 kts | 124° |
| 2026-05-08 18:41 | 23.29522 | -93.07634 | 34007 ft | 484 kts | 124° |
| 2026-05-08 18:41 | 23.25912 | -93.01435 | 34007 ft | 484 kts | 124° |
| 2026-05-08 18:42 | 23.22307 | -92.95260 | 34007 ft | 484 kts | 124° |
| 2026-05-08 18:42 | 23.18707 | -92.89074 | 34007 ft | 484 kts | 124° |
| 2026-05-08 18:43 | 23.15119 | -92.82935 | 34007 ft | 484 kts | 124° |
| 2026-05-08 18:43 | 23.11502 | -92.76764 | 34007 ft | 484 kts | 124° |
| 2026-05-08 18:44 | 23.07889 | -92.70590 | 34007 ft | 484 kts | 124° |
| 2026-05-08 18:44 | 23.04266 | -92.64414 | 34007 ft | 484 kts | 124° |
| 2026-05-08 18:45 | 23.00638 | -92.58246 | 34007 ft | 484 kts | 124° |
| 2026-05-08 18:45 | 22.97022 | -92.52083 | 34007 ft | 484 kts | 124° |
| 2026-05-08 18:46 | 22.93420 | -92.45966 | 34007 ft | 484 kts | 124° |
| 2026-05-08 18:46 | 22.89791 | -92.39818 | 34007 ft | 484 kts | 124° |
| 2026-05-08 18:47 | 22.86153 | -92.33656 | 34007 ft | 484 kts | 124° |
| 2026-05-08 18:47 | 22.82523 | -92.27508 | 34007 ft | 484 kts | 124° |
| 2026-05-08 18:48 | 22.78882 | -92.21357 | 34007 ft | 484 kts | 124° |
| 2026-05-08 18:48 | 22.75248 | -92.15219 | 34007 ft | 484 kts | 124° |
| 2026-05-08 18:49 | 22.71613 | -92.09072 | 34007 ft | 484 kts | 124° |
| 2026-05-08 18:49 | 22.67967 | -92.02942 | 34007 ft | 484 kts | 124° |
| 2026-05-08 18:50 | 22.64313 | -91.96809 | 34007 ft | 484 kts | 124° |
| 2026-05-08 18:50 | 22.60703 | -91.90714 | 34007 ft | 484 kts | 124° |
| 2026-05-08 18:51 | 22.57047 | -91.84581 | 34007 ft | 484 kts | 124° |
| 2026-05-08 18:51 | 22.53391 | -91.78465 | 34007 ft | 484 kts | 124° |
| 2026-05-08 18:52 | 22.49730 | -91.72329 | 34007 ft | 484 kts | 124° |
| 2026-05-08 18:52 | 22.46083 | -91.66212 | 34007 ft | 484 kts | 124° |
| 2026-05-08 18:53 | 22.42448 | -91.60138 | 34007 ft | 484 kts | 124° |
| 2026-05-08 18:53 | 22.38780 | -91.54036 | 34007 ft | 484 kts | 124° |
| 2026-05-08 18:54 | 22.35116 | -91.47925 | 34007 ft | 484 kts | 124° |
| 2026-05-08 18:54 | 22.31445 | -91.41816 | 34007 ft | 484 kts | 124° |
| 2026-05-08 18:55 | 22.25962 | -91.32722 | 34007 ft | 484 kts | 124° |
| 2026-05-08 18:56 | 22.22281 | -91.26613 | 34007 ft | 484 kts | 124° |
| 2026-05-08 18:56 | 22.19223 | -91.21538 | 34007 ft | 484 kts | 124° |
| 2026-05-08 18:57 | 22.15549 | -91.15454 | 34007 ft | 484 kts | 124° |
| 2026-05-08 18:57 | 22.11870 | -91.09369 | 34007 ft | 484 kts | 124° |
| 2026-05-08 18:58 | 22.08193 | -91.03291 | 34007 ft | 484 kts | 124° |
| 2026-05-08 18:58 | 22.04500 | -90.97207 | 34007 ft | 484 kts | 124° |
| 2026-05-08 18:59 | 22.00813 | -90.91128 | 34007 ft | 483 kts | 124° |
| 2026-05-08 18:59 | 21.99012 | -90.88162 | 33861 ft | 476 kts | 124° |
| 2026-05-08 18:59 | 21.97217 | -90.85204 | 33306 ft | 469 kts | 125° |
| 2026-05-08 18:59 | 21.95428 | -90.82263 | 32416 ft | 468 kts | 125° |
| 2026-05-08 19:00 | 21.93632 | -90.79311 | 31262 ft | 473 kts | 125° |
| 2026-05-08 19:00 | 21.91817 | -90.76332 | 30027 ft | 479 kts | 125° |
| 2026-05-08 19:00 | 21.89972 | -90.73306 | 28643 ft | 486 kts | 125° |
| 2026-05-08 19:00 | 21.88106 | -90.70239 | 27163 ft | 494 kts | 124° |
| 2026-05-08 19:01 | 21.86215 | -90.67133 | 25847 ft | 496 kts | 124° |
| 2026-05-08 19:01 | 21.84317 | -90.64018 | 24391 ft | 498 kts | 125° |
| 2026-05-08 19:01 | 21.82408 | -90.60892 | 23069 ft | 498 kts | 125° |
| 2026-05-08 19:01 | 21.80521 | -90.57807 | 22117 ft | 488 kts | 125° |